sensor_id;sensor_type;location;lat;lon;timestamp;P1;durP1;ratioP1;P2;durP2;ratioP2
31716;SDS011;18301;51.076;17.046;2023-02-28T00:00:48;37.42;;;18.95;;
31716;SDS011;18301;51.076;17.046;2023-02-28T00:05:49;33.80;;;15.40;;
31716;SDS011;18301;51.076;17.046;2023-02-28T00:10:50;33.88;;;15.35;;
31716;SDS011;18301;51.076;17.046;2023-02-28T00:16:02;30.00;;;15.05;;
31716;SDS011;18301;51.076;17.046;2023-02-28T00:21:05;37.20;;;16.35;;
31716;SDS011;18301;51.076;17.046;2023-02-28T00:26:07;26.65;;;13.65;;
31716;SDS011;18301;51.076;17.046;2023-02-28T00:31:09;27.20;;;13.00;;
31716;SDS011;18301;51.076;17.046;2023-02-28T00:36:11;30.33;;;13.60;;
31716;SDS011;18301;51.076;17.046;2023-02-28T00:41:12;23.05;;;11.15;;
31716;SDS011;18301;51.076;17.046;2023-02-28T00:46:14;23.40;;;12.48;;
31716;SDS011;18301;51.076;17.046;2023-02-28T00:51:15;28.42;;;13.02;;
31716;SDS011;18301;51.076;17.046;2023-02-28T00:56:17;28.30;;;12.13;;
31716;SDS011;18301;51.076;17.046;2023-02-28T01:01:18;26.77;;;12.13;;
31716;SDS011;18301;51.076;17.046;2023-02-28T01:06:20;33.83;;;13.13;;
31716;SDS011;18301;51.076;17.046;2023-02-28T01:11:21;27.98;;;12.82;;
31716;SDS011;18301;51.076;17.046;2023-02-28T01:16:24;34.88;;;16.65;;
31716;SDS011;18301;51.076;17.046;2023-02-28T01:21:26;32.97;;;15.27;;
31716;SDS011;18301;51.076;17.046;2023-02-28T01:26:28;31.88;;;16.15;;
31716;SDS011;18301;51.076;17.046;2023-02-28T01:31:30;29.10;;;14.88;;
31716;SDS011;18301;51.076;17.046;2023-02-28T01:36:32;32.97;;;15.10;;
31716;SDS011;18301;51.076;17.046;2023-02-28T01:41:34;33.30;;;15.38;;
31716;SDS011;18301;51.076;17.046;2023-02-28T01:46:36;30.85;;;14.10;;
31716;SDS011;18301;51.076;17.046;2023-02-28T01:51:39;29.65;;;13.85;;
31716;SDS011;18301;51.076;17.046;2023-02-28T01:56:55;32.05;;;15.15;;
31716;SDS011;18301;51.076;17.046;2023-02-28T02:01:59;30.75;;;14.00;;
31716;SDS011;18301;51.076;17.046;2023-02-28T02:07:02;26.35;;;12.77;;
31716;SDS011;18301;51.076;17.046;2023-02-28T02:12:09;28.25;;;12.60;;
31716;SDS011;18301;51.076;17.046;2023-02-28T02:28:11;35.83;;;15.38;;
31716;SDS011;18301;51.076;17.046;2023-02-28T02:34:40;31.70;;;14.87;;
31716;SDS011;18301;51.076;17.046;2023-02-28T02:44:48;29.30;;;14.30;;
31716;SDS011;18301;51.076;17.046;2023-02-28T02:49:55;32.60;;;14.88;;
31716;SDS011;18301;51.076;17.046;2023-02-28T02:54:59;33.28;;;14.65;;
31716;SDS011;18301;51.076;17.046;2023-02-28T03:00:03;31.33;;;14.27;;
31716;SDS011;18301;51.076;17.046;2023-02-28T03:05:19;35.55;;;14.23;;
31716;SDS011;18301;51.076;17.046;2023-02-28T03:10:26;28.85;;;14.25;;
31716;SDS011;18301;51.076;17.046;2023-02-28T03:15:32;36.40;;;14.55;;
31716;SDS011;18301;51.076;17.046;2023-02-28T03:20:54;32.55;;;15.05;;
31716;SDS011;18301;51.076;17.046;2023-02-28T03:26:12;39.42;;;15.75;;
31716;SDS011;18301;51.076;17.046;2023-02-28T03:31:27;35.80;;;15.77;;
31716;SDS011;18301;51.076;17.046;2023-02-28T03:36:38;30.88;;;14.02;;
31716;SDS011;18301;51.076;17.046;2023-02-28T03:41:46;32.70;;;14.45;;
31716;SDS011;18301;51.076;17.046;2023-02-28T03:46:55;34.30;;;14.73;;
31716;SDS011;18301;51.076;17.046;2023-02-28T03:52:02;30.97;;;14.23;;
31716;SDS011;18301;51.076;17.046;2023-02-28T03:57:12;34.28;;;14.10;;
31716;SDS011;18301;51.076;17.046;2023-02-28T04:02:24;35.03;;;14.90;;
31716;SDS011;18301;51.076;17.046;2023-02-28T04:07:25;28.55;;;14.43;;
31716;SDS011;18301;51.076;17.046;2023-02-28T04:12:30;32.13;;;14.75;;
31716;SDS011;18301;51.076;17.046;2023-02-28T04:17:32;31.45;;;14.30;;
31716;SDS011;18301;51.076;17.046;2023-02-28T04:22:33;29.88;;;14.10;;
31716;SDS011;18301;51.076;17.046;2023-02-28T04:27:35;29.27;;;14.27;;
31716;SDS011;18301;51.076;17.046;2023-02-28T04:32:36;32.58;;;15.90;;
31716;SDS011;18301;51.076;17.046;2023-02-28T04:37:37;33.70;;;15.30;;
31716;SDS011;18301;51.076;17.046;2023-02-28T04:42:39;29.98;;;14.40;;
31716;SDS011;18301;51.076;17.046;2023-02-28T04:47:40;30.33;;;14.57;;
31716;SDS011;18301;51.076;17.046;2023-02-28T04:52:42;34.83;;;14.90;;
31716;SDS011;18301;51.076;17.046;2023-02-28T04:57:43;29.08;;;14.40;;
31716;SDS011;18301;51.076;17.046;2023-02-28T05:02:45;29.40;;;14.13;;
31716;SDS011;18301;51.076;17.046;2023-02-28T05:07:46;30.45;;;14.23;;
31716;SDS011;18301;51.076;17.046;2023-02-28T05:12:48;32.65;;;14.18;;
31716;SDS011;18301;51.076;17.046;2023-02-28T05:17:49;29.42;;;13.98;;
31716;SDS011;18301;51.076;17.046;2023-02-28T05:22:51;29.63;;;14.45;;
31716;SDS011;18301;51.076;17.046;2023-02-28T05:27:53;26.08;;;12.68;;
31716;SDS011;18301;51.076;17.046;2023-02-28T05:32:55;28.13;;;12.40;;
31716;SDS011;18301;51.076;17.046;2023-02-28T05:37:56;25.52;;;12.77;;
31716;SDS011;18301;51.076;17.046;2023-02-28T05:42:58;26.17;;;13.23;;
31716;SDS011;18301;51.076;17.046;2023-02-28T05:47:59;27.33;;;12.75;;
31716;SDS011;18301;51.076;17.046;2023-02-28T05:53:01;27.83;;;14.07;;
31716;SDS011;18301;51.076;17.046;2023-02-28T05:58:03;27.58;;;13.48;;
31716;SDS011;18301;51.076;17.046;2023-02-28T06:03:05;25.20;;;13.63;;
31716;SDS011;18301;51.076;17.046;2023-02-28T06:08:06;26.15;;;12.95;;
31716;SDS011;18301;51.076;17.046;2023-02-28T06:13:08;25.50;;;12.90;;
31716;SDS011;18301;51.076;17.046;2023-02-28T06:18:09;26.88;;;13.73;;
31716;SDS011;18301;51.076;17.046;2023-02-28T06:23:11;30.17;;;14.23;;
31716;SDS011;18301;51.076;17.046;2023-02-28T06:28:12;30.50;;;15.55;;
31716;SDS011;18301;51.076;17.046;2023-02-28T06:33:14;32.10;;;15.23;;
31716;SDS011;18301;51.076;17.046;2023-02-28T06:38:15;34.08;;;15.20;;
31716;SDS011;18301;51.076;17.046;2023-02-28T06:43:17;26.98;;;14.23;;
31716;SDS011;18301;51.076;17.046;2023-02-28T06:48:18;35.45;;;15.95;;
31716;SDS011;18301;51.076;17.046;2023-02-28T06:53:20;42.55;;;18.27;;
31716;SDS011;18301;51.076;17.046;2023-02-28T06:58:21;34.33;;;15.65;;
31716;SDS011;18301;51.076;17.046;2023-02-28T07:03:23;28.25;;;15.23;;
31716;SDS011;18301;51.076;17.046;2023-02-28T07:08:25;26.08;;;13.57;;
31716;SDS011;18301;51.076;17.046;2023-02-28T07:13:27;27.05;;;13.90;;
31716;SDS011;18301;51.076;17.046;2023-02-28T07:18:29;26.15;;;13.13;;
31716;SDS011;18301;51.076;17.046;2023-02-28T07:23:31;27.63;;;14.32;;
31716;SDS011;18301;51.076;17.046;2023-02-28T07:28:32;23.27;;;11.88;;
31716;SDS011;18301;51.076;17.046;2023-02-28T07:33:34;23.13;;;11.80;;
31716;SDS011;18301;51.076;17.046;2023-02-28T07:38:36;22.65;;;11.35;;
31716;SDS011;18301;51.076;17.046;2023-02-28T07:43:38;19.15;;;10.68;;
31716;SDS011;18301;51.076;17.046;2023-02-28T07:48:40;19.60;;;11.15;;
31716;SDS011;18301;51.076;17.046;2023-02-28T07:53:42;19.05;;;10.50;;
31716;SDS011;18301;51.076;17.046;2023-02-28T07:58:43;20.75;;;12.07;;
31716;SDS011;18301;51.076;17.046;2023-02-28T08:03:45;16.10;;;10.07;;
31716;SDS011;18301;51.076;17.046;2023-02-28T08:08:46;16.30;;;9.65;;
31716;SDS011;18301;51.076;17.046;2023-02-28T08:13:48;15.48;;;9.93;;
31716;SDS011;18301;51.076;17.046;2023-02-28T08:18:50;17.38;;;8.43;;
31716;SDS011;18301;51.076;17.046;2023-02-28T08:23:53;14.32;;;8.57;;
31716;SDS011;18301;51.076;17.046;2023-02-28T08:28:55;17.08;;;9.82;;
31716;SDS011;18301;51.076;17.046;2023-02-28T08:33:58;18.20;;;9.98;;
31716;SDS011;18301;51.076;17.046;2023-02-28T08:39:00;17.45;;;10.25;;
31716;SDS011;18301;51.076;17.046;2023-02-28T08:44:02;17.52;;;10.45;;
31716;SDS011;18301;51.076;17.046;2023-02-28T08:49:04;20.70;;;10.88;;
31716;SDS011;18301;51.076;17.046;2023-02-28T08:54:05;17.30;;;10.48;;
31716;SDS011;18301;51.076;17.046;2023-02-28T08:59:08;13.73;;;7.97;;
31716;SDS011;18301;51.076;17.046;2023-02-28T09:04:10;9.02;;;6.05;;
31716;SDS011;18301;51.076;17.046;2023-02-28T09:09:15;7.82;;;4.78;;
31716;SDS011;18301;51.076;17.046;2023-02-28T09:14:17;9.50;;;5.55;;
31716;SDS011;18301;51.076;17.046;2023-02-28T09:19:18;9.68;;;6.30;;
31716;SDS011;18301;51.076;17.046;2023-02-28T09:24:20;10.88;;;5.60;;
31716;SDS011;18301;51.076;17.046;2023-02-28T09:29:22;7.38;;;4.40;;
31716;SDS011;18301;51.076;17.046;2023-02-28T09:34:23;9.80;;;5.00;;
31716;SDS011;18301;51.076;17.046;2023-02-28T09:39:28;10.25;;;5.43;;
31716;SDS011;18301;51.076;17.046;2023-02-28T09:49:33;9.38;;;5.25;;
31716;SDS011;18301;51.076;17.046;2023-02-28T09:54:40;7.93;;;5.00;;
31716;SDS011;18301;51.076;17.046;2023-02-28T10:05:07;11.57;;;5.72;;
31716;SDS011;18301;51.076;17.046;2023-02-28T10:10:18;10.77;;;6.05;;
31716;SDS011;18301;51.076;17.046;2023-02-28T10:15:43;10.93;;;6.30;;
31716;SDS011;18301;51.076;17.046;2023-02-28T10:20:47;11.77;;;6.70;;
31716;SDS011;18301;51.076;17.046;2023-02-28T10:26:01;10.05;;;5.70;;
31716;SDS011;18301;51.076;17.046;2023-02-28T10:31:13;12.05;;;7.05;;
31716;SDS011;18301;51.076;17.046;2023-02-28T10:36:19;13.38;;;7.10;;
31716;SDS011;18301;51.076;17.046;2023-02-28T10:41:31;10.95;;;6.35;;
31716;SDS011;18301;51.076;17.046;2023-02-28T10:46:37;12.73;;;6.25;;
31716;SDS011;18301;51.076;17.046;2023-02-28T10:51:41;10.45;;;6.45;;
31716;SDS011;18301;51.076;17.046;2023-02-28T10:56:43;13.50;;;7.47;;
31716;SDS011;18301;51.076;17.046;2023-02-28T11:01:45;13.18;;;7.97;;
31716;SDS011;18301;51.076;17.046;2023-02-28T11:07:36;13.95;;;7.82;;
31716;SDS011;18301;51.076;17.046;2023-02-28T11:12:37;13.20;;;7.00;;
31716;SDS011;18301;51.076;17.046;2023-02-28T11:17:55;14.18;;;7.75;;
31716;SDS011;18301;51.076;17.046;2023-02-28T11:22:58;16.13;;;7.80;;
31716;SDS011;18301;51.076;17.046;2023-02-28T11:28:04;13.95;;;7.63;;
31716;SDS011;18301;51.076;17.046;2023-02-28T11:33:18;16.85;;;8.48;;
31716;SDS011;18301;51.076;17.046;2023-02-28T11:38:21;15.18;;;7.88;;
31716;SDS011;18301;51.076;17.046;2023-02-28T11:48:51;10.90;;;6.68;;
31716;SDS011;18301;51.076;17.046;2023-02-28T11:54:26;13.32;;;7.45;;
31716;SDS011;18301;51.076;17.046;2023-02-28T12:04:53;19.80;;;7.77;;
31716;SDS011;18301;51.076;17.046;2023-02-28T12:10:17;13.52;;;7.43;;
31716;SDS011;18301;51.076;17.046;2023-02-28T12:15:24;14.13;;;7.05;;
31716;SDS011;18301;51.076;17.046;2023-02-28T12:20:34;12.02;;;7.03;;
31716;SDS011;18301;51.076;17.046;2023-02-28T12:25:44;11.82;;;6.97;;
31716;SDS011;18301;51.076;17.046;2023-02-28T12:30:51;15.68;;;8.15;;
31716;SDS011;18301;51.076;17.046;2023-02-28T12:35:59;16.83;;;7.90;;
31716;SDS011;18301;51.076;17.046;2023-02-28T12:41:10;14.38;;;7.85;;
31716;SDS011;18301;51.076;17.046;2023-02-28T12:46:19;18.15;;;9.38;;
31716;SDS011;18301;51.076;17.046;2023-02-28T12:51:25;17.83;;;8.98;;
31716;SDS011;18301;51.076;17.046;2023-02-28T13:13:13;18.88;;;9.95;;
31716;SDS011;18301;51.076;17.046;2023-02-28T13:18:27;18.48;;;9.88;;
31716;SDS011;18301;51.076;17.046;2023-02-28T13:38:58;17.83;;;9.70;;
31716;SDS011;18301;51.076;17.046;2023-02-28T13:49:23;19.83;;;10.82;;
31716;SDS011;18301;51.076;17.046;2023-02-28T13:59:40;17.55;;;9.30;;
31716;SDS011;18301;51.076;17.046;2023-02-28T14:05:14;20.52;;;11.45;;
31716;SDS011;18301;51.076;17.046;2023-02-28T14:10:35;17.55;;;10.02;;
31716;SDS011;18301;51.076;17.046;2023-02-28T14:15:47;17.35;;;9.48;;
31716;SDS011;18301;51.076;17.046;2023-02-28T14:21:09;21.55;;;10.52;;
31716;SDS011;18301;51.076;17.046;2023-02-28T14:37:00;23.30;;;11.77;;
31716;SDS011;18301;51.076;17.046;2023-02-28T14:42:03;23.20;;;12.63;;
31716;SDS011;18301;51.076;17.046;2023-02-28T14:47:27;24.02;;;12.05;;
31716;SDS011;18301;51.076;17.046;2023-02-28T14:52:32;23.15;;;12.35;;
31716;SDS011;18301;51.076;17.046;2023-02-28T14:57:35;28.77;;;12.93;;
31716;SDS011;18301;51.076;17.046;2023-02-28T15:02:41;21.15;;;11.98;;
31716;SDS011;18301;51.076;17.046;2023-02-28T15:07:44;31.08;;;15.95;;
31716;SDS011;18301;51.076;17.046;2023-02-28T15:12:57;21.77;;;12.35;;
31716;SDS011;18301;51.076;17.046;2023-02-28T15:18:01;22.58;;;11.60;;
31716;SDS011;18301;51.076;17.046;2023-02-28T15:23:06;25.48;;;12.50;;
31716;SDS011;18301;51.076;17.046;2023-02-28T15:28:10;22.50;;;10.95;;
31716;SDS011;18301;51.076;17.046;2023-02-28T15:43:32;21.73;;;11.60;;
31716;SDS011;18301;51.076;17.046;2023-02-28T15:48:51;22.83;;;11.93;;
31716;SDS011;18301;51.076;17.046;2023-02-28T15:53:56;19.25;;;10.52;;
31716;SDS011;18301;51.076;17.046;2023-02-28T15:59:00;24.40;;;13.50;;
31716;SDS011;18301;51.076;17.046;2023-02-28T16:04:14;24.35;;;12.60;;
31716;SDS011;18301;51.076;17.046;2023-02-28T16:09:19;15.85;;;8.40;;
31716;SDS011;18301;51.076;17.046;2023-02-28T16:14:22;21.45;;;11.52;;
31716;SDS011;18301;51.076;17.046;2023-02-28T16:19:26;21.20;;;11.00;;
31716;SDS011;18301;51.076;17.046;2023-02-28T16:24:27;16.60;;;8.45;;
31716;SDS011;18301;51.076;17.046;2023-02-28T16:29:30;17.90;;;9.10;;
31716;SDS011;18301;51.076;17.046;2023-02-28T16:34:34;20.08;;;10.13;;
31716;SDS011;18301;51.076;17.046;2023-02-28T16:39:35;22.40;;;9.98;;
31716;SDS011;18301;51.076;17.046;2023-02-28T16:44:37;21.10;;;10.90;;
31716;SDS011;18301;51.076;17.046;2023-02-28T16:49:38;20.75;;;10.45;;
31716;SDS011;18301;51.076;17.046;2023-02-28T16:54:43;26.02;;;11.95;;
31716;SDS011;18301;51.076;17.046;2023-02-28T16:59:44;21.42;;;11.65;;
31716;SDS011;18301;51.076;17.046;2023-02-28T17:04:46;27.95;;;14.05;;
31716;SDS011;18301;51.076;17.046;2023-02-28T17:09:47;28.58;;;15.60;;
31716;SDS011;18301;51.076;17.046;2023-02-28T17:14:49;23.25;;;12.82;;
31716;SDS011;18301;51.076;17.046;2023-02-28T17:19:50;25.73;;;14.32;;
31716;SDS011;18301;51.076;17.046;2023-02-28T17:24:52;26.67;;;14.30;;
31716;SDS011;18301;51.076;17.046;2023-02-28T17:29:57;31.10;;;15.73;;
31716;SDS011;18301;51.076;17.046;2023-02-28T17:34:58;31.95;;;14.95;;
31716;SDS011;18301;51.076;17.046;2023-02-28T17:40:00;34.38;;;16.63;;
31716;SDS011;18301;51.076;17.046;2023-02-28T17:45:01;36.83;;;16.35;;
31716;SDS011;18301;51.076;17.046;2023-02-28T17:50:03;29.45;;;16.63;;
31716;SDS011;18301;51.076;17.046;2023-02-28T17:55:05;35.38;;;17.85;;
31716;SDS011;18301;51.076;17.046;2023-02-28T18:00:07;37.90;;;18.17;;
31716;SDS011;18301;51.076;17.046;2023-02-28T18:05:10;46.30;;;20.15;;
31716;SDS011;18301;51.076;17.046;2023-02-28T18:10:14;43.95;;;22.50;;
31716;SDS011;18301;51.076;17.046;2023-02-28T18:15:21;38.28;;;19.27;;
31716;SDS011;18301;51.076;17.046;2023-02-28T18:20:22;40.83;;;19.80;;
31716;SDS011;18301;51.076;17.046;2023-02-28T18:25:24;47.00;;;21.40;;
31716;SDS011;18301;51.076;17.046;2023-02-28T18:30:28;40.70;;;20.92;;
31716;SDS011;18301;51.076;17.046;2023-02-28T18:35:31;41.22;;;21.35;;
31716;SDS011;18301;51.076;17.046;2023-02-28T18:40:36;45.08;;;23.42;;
31716;SDS011;18301;51.076;17.046;2023-02-28T18:45:38;43.60;;;20.85;;
31716;SDS011;18301;51.076;17.046;2023-02-28T18:50:40;43.55;;;20.45;;
31716;SDS011;18301;51.076;17.046;2023-02-28T18:55:45;43.92;;;22.13;;
31716;SDS011;18301;51.076;17.046;2023-02-28T19:00:46;45.92;;;24.20;;
31716;SDS011;18301;51.076;17.046;2023-02-28T19:05:48;52.63;;;25.67;;
31716;SDS011;18301;51.076;17.046;2023-02-28T19:10:51;48.70;;;21.35;;
31716;SDS011;18301;51.076;17.046;2023-02-28T19:15:59;45.08;;;22.48;;
31716;SDS011;18301;51.076;17.046;2023-02-28T19:21:02;47.90;;;24.10;;
31716;SDS011;18301;51.076;17.046;2023-02-28T19:26:10;47.20;;;22.95;;
31716;SDS011;18301;51.076;17.046;2023-02-28T19:31:24;47.53;;;23.30;;
31716;SDS011;18301;51.076;17.046;2023-02-28T19:36:26;43.97;;;20.52;;
31716;SDS011;18301;51.076;17.046;2023-02-28T19:41:28;42.45;;;21.95;;
31716;SDS011;18301;51.076;17.046;2023-02-28T19:46:30;41.97;;;21.38;;
31716;SDS011;18301;51.076;17.046;2023-02-28T19:51:31;46.72;;;21.40;;
31716;SDS011;18301;51.076;17.046;2023-02-28T19:56:34;42.65;;;22.30;;
31716;SDS011;18301;51.076;17.046;2023-02-28T20:01:35;44.10;;;21.80;;
31716;SDS011;18301;51.076;17.046;2023-02-28T20:06:38;46.15;;;22.33;;
31716;SDS011;18301;51.076;17.046;2023-02-28T20:11:40;42.80;;;22.13;;
31716;SDS011;18301;51.076;17.046;2023-02-28T20:16:41;43.92;;;22.20;;
31716;SDS011;18301;51.076;17.046;2023-02-28T20:21:44;47.53;;;22.15;;
31716;SDS011;18301;51.076;17.046;2023-02-28T20:26:45;50.42;;;23.02;;
31716;SDS011;18301;51.076;17.046;2023-02-28T20:31:46;46.22;;;21.90;;
31716;SDS011;18301;51.076;17.046;2023-02-28T20:36:48;49.60;;;22.80;;
31716;SDS011;18301;51.076;17.046;2023-02-28T20:41:50;51.70;;;23.70;;
31716;SDS011;18301;51.076;17.046;2023-02-28T20:46:51;47.75;;;23.65;;
31716;SDS011;18301;51.076;17.046;2023-02-28T20:51:52;53.10;;;25.13;;
31716;SDS011;18301;51.076;17.046;2023-02-28T20:56:54;50.45;;;25.05;;
31716;SDS011;18301;51.076;17.046;2023-02-28T21:01:56;54.70;;;24.67;;
31716;SDS011;18301;51.076;17.046;2023-02-28T21:06:57;52.33;;;24.80;;
31716;SDS011;18301;51.076;17.046;2023-02-28T21:12:00;60.90;;;26.10;;
31716;SDS011;18301;51.076;17.046;2023-02-28T21:17:01;52.65;;;25.92;;
31716;SDS011;18301;51.076;17.046;2023-02-28T21:22:03;65.72;;;26.65;;
31716;SDS011;18301;51.076;17.046;2023-02-28T21:27:04;52.55;;;25.88;;
31716;SDS011;18301;51.076;17.046;2023-02-28T21:32:06;51.75;;;25.40;;
31716;SDS011;18301;51.076;17.046;2023-02-28T21:37:07;57.90;;;27.83;;
31716;SDS011;18301;51.076;17.046;2023-02-28T21:42:11;60.42;;;29.52;;
31716;SDS011;18301;51.076;17.046;2023-02-28T21:47:13;68.45;;;30.67;;
31716;SDS011;18301;51.076;17.046;2023-02-28T21:52:14;60.90;;;28.50;;
31716;SDS011;18301;51.076;17.046;2023-02-28T21:57:16;64.75;;;29.83;;
31716;SDS011;18301;51.076;17.046;2023-02-28T22:02:17;61.05;;;28.08;;
31716;SDS011;18301;51.076;17.046;2023-02-28T22:07:19;59.00;;;28.35;;
31716;SDS011;18301;51.076;17.046;2023-02-28T22:12:20;62.00;;;29.40;;
31716;SDS011;18301;51.076;17.046;2023-02-28T22:17:22;60.55;;;27.88;;
31716;SDS011;18301;51.076;17.046;2023-02-28T22:22:23;64.45;;;29.45;;
31716;SDS011;18301;51.076;17.046;2023-02-28T22:27:26;59.92;;;27.73;;
31716;SDS011;18301;51.076;17.046;2023-02-28T22:32:27;59.40;;;28.38;;
31716;SDS011;18301;51.076;17.046;2023-02-28T22:37:29;61.72;;;28.17;;
31716;SDS011;18301;51.076;17.046;2023-02-28T22:42:31;61.92;;;28.80;;
31716;SDS011;18301;51.076;17.046;2023-02-28T22:47:34;82.25;;;34.97;;
31716;SDS011;18301;51.076;17.046;2023-02-28T22:52:37;108.40;;;42.85;;
31716;SDS011;18301;51.076;17.046;2023-02-28T22:57:40;148.82;;;50.90;;
31716;SDS011;18301;51.076;17.046;2023-02-28T23:02:42;119.53;;;45.22;;
31716;SDS011;18301;51.076;17.046;2023-02-28T23:07:44;104.50;;;38.55;;
31716;SDS011;18301;51.076;17.046;2023-02-28T23:12:46;122.78;;;44.78;;
31716;SDS011;18301;51.076;17.046;2023-02-28T23:17:53;132.75;;;48.00;;
31716;SDS011;18301;51.076;17.046;2023-02-28T23:22:55;72.00;;;31.55;;
31716;SDS011;18301;51.076;17.046;2023-02-28T23:27:56;71.55;;;32.55;;
31716;SDS011;18301;51.076;17.046;2023-02-28T23:32:57;64.32;;;31.48;;
31716;SDS011;18301;51.076;17.046;2023-02-28T23:37:59;67.53;;;29.90;;
31716;SDS011;18301;51.076;17.046;2023-02-28T23:43:00;69.97;;;29.85;;
31716;SDS011;18301;51.076;17.046;2023-02-28T23:48:02;61.85;;;29.20;;
31716;SDS011;18301;51.076;17.046;2023-02-28T23:53:04;62.75;;;30.15;;
31716;SDS011;18301;51.076;17.046;2023-02-28T23:58:06;65.85;;;30.05;;
